createdAt,value
2019-02-11T00:01:53.273Z,98.40
2019-02-11T00:04:22.469Z,98.10
2019-02-11T00:06:51.637Z,97.90
2019-02-11T00:09:20.819Z,97.90
2019-02-11T00:11:50.011Z,97.80
2019-02-11T00:14:19.214Z,97.30
2019-02-11T00:16:48.381Z,97.40
2019-02-11T00:19:17.579Z,97.40
2019-02-11T00:21:46.751Z,97.40
2019-02-11T00:24:15.944Z,97.20
2019-02-11T00:26:45.127Z,97.30
2019-02-11T00:29:14.327Z,97.00
2019-02-11T00:31:43.568Z,97.40
2019-02-11T00:34:18.813Z,96.80
2019-02-11T00:36:48.059Z,96.90
2019-02-11T00:39:17.250Z,97.10
2019-02-11T00:42:05.504Z,96.70
2019-02-11T00:44:34.731Z,96.80
2019-02-11T00:47:03.931Z,97.20
2019-02-11T00:49:52.179Z,97.10
2019-02-11T00:52:21.515Z,96.80
2019-02-11T00:54:50.704Z,96.90
2019-02-11T00:57:19.871Z,97.00
2019-02-11T01:00:09.400Z,97.00
2019-02-11T01:02:38.737Z,97.20
2019-02-11T01:05:07.956Z,97.40
2019-02-11T01:07:37.300Z,97.30
2019-02-11T01:10:08.294Z,97.10
2019-02-11T01:12:37.696Z,97.30
2019-02-11T01:15:07.816Z,97.60
2019-02-11T01:17:37.031Z,97.60
2019-02-11T01:20:08.675Z,97.60
2019-02-11T01:22:37.846Z,97.50
2019-02-11T01:25:07.072Z,97.50
2019-02-11T01:27:36.240Z,97.70
2019-02-11T01:30:07.167Z,97.60
2019-02-11T01:32:36.324Z,97.80
2019-02-11T01:35:06.360Z,97.70
2019-02-11T01:37:35.532Z,97.70
2019-02-11T01:40:05.577Z,98.00
2019-02-11T01:42:34.774Z,97.90
2019-02-11T01:45:04.030Z,98.00
2019-02-11T01:47:33.233Z,97.70
2019-02-11T01:50:02.404Z,97.70
2019-02-11T01:52:31.584Z,98.00
2019-02-11T01:55:00.785Z,98.20
2019-02-11T01:57:30.132Z,98.10
2019-02-11T01:59:59.304Z,98.20
2019-02-11T02:02:28.580Z,97.90
2019-02-11T02:04:57.764Z,98.10
2019-02-11T02:07:26.948Z,98.00
2019-02-11T02:09:56.196Z,98.20
2019-02-11T02:12:25.396Z,98.10
2019-02-11T02:14:54.589Z,98.20
2019-02-11T02:17:23.892Z,98.20
2019-02-11T02:19:53.095Z,98.40
2019-02-11T02:22:22.269Z,98.20
2019-02-11T02:24:51.469Z,98.20
2019-02-11T02:27:20.717Z,98.50
2019-02-11T02:29:49.904Z,98.20
2019-02-11T02:32:19.084Z,98.10
2019-02-11T02:34:48.285Z,97.90
2019-02-11T02:37:17.525Z,97.90
2019-02-11T02:39:46.790Z,98.10
2019-02-11T02:42:35.109Z,97.90
2019-02-11T02:45:04.671Z,97.70
2019-02-11T02:47:33.885Z,97.80
2019-02-11T02:50:03.137Z,97.70
2019-02-11T02:52:32.302Z,97.90
2019-02-11T02:55:01.530Z,97.80
2019-02-11T02:57:30.872Z,98.10
2019-02-11T03:00:19.113Z,98.10
2019-02-11T03:02:48.309Z,98.20
2019-02-11T03:05:17.477Z,98.40
2019-02-11T03:07:46.678Z,98.30
2019-02-11T03:10:15.842Z,98.50
2019-02-11T03:12:45.039Z,98.60
2019-02-11T03:15:14.301Z,98.40
2019-02-11T03:17:43.485Z,98.60
2019-02-11T03:20:12.669Z,98.90
2019-02-11T03:22:41.833Z,98.70
2019-02-11T03:25:11.017Z,98.50
2019-02-11T03:27:40.267Z,98.70
2019-02-11T03:30:09.978Z,98.80
2019-02-11T03:32:39.163Z,99.10
2019-02-11T03:35:08.541Z,99.50
2019-02-11T03:37:37.718Z,99.60
2019-02-11T03:40:07.320Z,99.40
2019-02-11T03:42:36.508Z,99.30
2019-02-11T03:45:06.871Z,99.20
2019-02-11T03:47:36.062Z,99.30
2019-02-11T03:50:05.493Z,99.50
2019-02-11T03:52:34.675Z,99.80
2019-02-11T03:55:03.861Z,99.90
2019-02-11T03:57:33.110Z,99.90
2019-02-11T04:00:02.303Z,99.90
2019-02-11T04:02:31.501Z,99.90
2019-02-11T04:05:00.707Z,99.90
2019-02-11T04:07:30.007Z,99.90
2019-02-11T04:10:18.281Z,99.90
2019-02-11T04:12:47.551Z,99.90
2019-02-11T04:15:16.807Z,99.90
2019-02-11T04:17:46.075Z,99.90
2019-02-11T04:20:15.327Z,99.90
2019-02-11T04:22:44.513Z,99.90
2019-02-11T04:25:13.682Z,99.90
2019-02-11T04:27:42.870Z,99.90
2019-02-11T04:30:12.119Z,99.90
2019-02-11T04:32:41.322Z,99.80
2019-02-11T04:35:10.581Z,99.70
2019-02-11T04:37:39.739Z,99.70
2019-02-11T04:40:10.039Z,99.70
2019-02-11T04:42:39.227Z,99.70
2019-02-11T04:45:09.257Z,99.80
2019-02-11T04:47:38.455Z,99.80
2019-02-11T04:50:08.656Z,99.70
2019-02-11T04:52:57.054Z,99.50
2019-02-11T04:55:26.224Z,99.20
2019-02-11T04:57:55.434Z,99.20
2019-02-11T05:00:24.614Z,99.00
2019-02-11T05:02:53.872Z,99.00
2019-02-11T05:05:23.120Z,99.10
2019-02-11T05:07:52.309Z,98.90
2019-02-11T05:10:21.568Z,99.20
2019-02-11T05:12:50.741Z,99.10
2019-02-11T05:15:19.911Z,98.90
2019-02-11T05:17:49.165Z,98.80
2019-02-11T05:20:18.420Z,99.20
2019-02-11T05:22:47.660Z,99.00
2019-02-11T05:25:16.862Z,99.00
2019-02-11T05:27:46.376Z,99.20
2019-02-11T05:30:15.773Z,99.30
2019-02-11T05:32:45.020Z,99.30
2019-02-11T05:35:14.311Z,99.50
2019-02-11T05:37:44.228Z,99.70
2019-02-11T05:40:13.645Z,99.90
2019-02-11T05:42:42.805Z,99.90
2019-02-11T05:45:12.068Z,99.90
2019-02-11T05:47:41.236Z,99.90
2019-02-11T05:50:10.765Z,99.90
2019-02-11T05:52:39.976Z,99.90
2019-02-11T05:55:09.449Z,99.90
2019-02-11T05:57:38.694Z,99.90
2019-02-11T06:00:09.523Z,99.90
2019-02-11T06:02:38.680Z,99.90
2019-02-11T06:05:08.261Z,99.90
2019-02-11T06:07:37.457Z,99.90
2019-02-11T06:10:07.269Z,99.90
2019-02-11T06:12:36.424Z,99.90
2019-02-11T06:15:06.300Z,99.90
2019-02-11T06:17:35.458Z,99.90
2019-02-11T06:20:05.077Z,99.90
2019-02-11T06:22:34.267Z,99.90
2019-02-11T06:25:03.504Z,99.90
2019-02-11T06:27:32.705Z,99.90
2019-02-11T06:30:01.867Z,99.90
2019-02-11T06:32:31.141Z,99.90
2019-02-11T06:35:00.400Z,99.90
2019-02-11T06:37:29.705Z,99.90
2019-02-11T06:39:58.879Z,99.90
2019-02-11T06:42:28.084Z,99.90
2019-02-11T06:44:57.271Z,99.90
2019-02-11T06:47:32.065Z,99.90
2019-02-11T06:50:01.239Z,99.90
2019-02-11T06:52:30.403Z,99.90
2019-02-11T06:54:59.580Z,99.90
2019-02-11T06:57:28.765Z,99.90
2019-02-11T06:59:57.949Z,99.90
2019-02-11T07:02:27.115Z,99.90
2019-02-11T07:04:56.311Z,99.90
2019-02-11T07:07:25.483Z,99.90
2019-02-11T07:10:13.231Z,99.90
2019-02-11T07:12:48.417Z,99.90
2019-02-11T07:15:22.266Z,99.90
2019-02-11T07:17:48.539Z,99.90
2019-02-11T07:20:17.787Z,99.90
2019-02-11T07:22:46.961Z,99.90
2019-02-11T07:25:16.647Z,99.90
2019-02-11T07:27:45.993Z,99.90
2019-02-11T07:30:15.302Z,99.90
2019-02-11T07:32:44.467Z,99.90
2019-02-11T07:35:13.659Z,99.90
2019-02-11T07:37:42.823Z,99.90
2019-02-11T07:40:12.116Z,99.90
2019-02-11T07:43:09.771Z,99.90
2019-02-11T07:45:49.699Z,99.90
2019-02-11T07:48:30.652Z,99.90
2019-02-11T07:50:59.860Z,99.90
2019-02-11T07:53:39.047Z,99.90
2019-02-11T07:56:08.251Z,99.90
2019-02-11T07:58:37.495Z,99.90
2019-02-11T08:01:06.752Z,99.90
2019-02-11T08:03:35.922Z,99.90
2019-02-11T08:06:05.109Z,99.90
2019-02-11T08:08:34.273Z,99.90
2019-02-11T08:11:04.577Z,99.90
2019-02-11T08:13:33.824Z,99.90
2019-02-11T08:16:03.099Z,99.90
2019-02-11T08:18:32.282Z,99.90
2019-02-11T08:21:01.532Z,99.90
2019-02-11T08:23:49.771Z,99.90
2019-02-11T08:26:19.060Z,99.90
2019-02-11T08:28:48.306Z,99.90
2019-02-11T08:31:17.680Z,99.90
2019-02-11T08:33:46.852Z,99.90
2019-02-11T08:36:16.156Z,99.90
2019-02-11T08:38:51.320Z,99.90
2019-02-11T08:41:20.509Z,99.90
2019-02-11T08:43:49.678Z,99.90
2019-02-11T08:46:18.892Z,99.90
2019-02-11T08:48:48.100Z,99.90
2019-02-11T08:51:17.351Z,99.90
2019-02-11T08:53:46.574Z,99.90
2019-02-11T08:56:15.741Z,99.90
2019-02-11T08:58:44.976Z,99.90
2019-02-11T09:01:14.154Z,99.90
2019-02-11T09:03:43.368Z,99.90
2019-02-11T09:06:12.532Z,99.90
2019-02-11T09:08:41.917Z,99.90
2019-02-11T09:11:11.100Z,99.90
2019-02-11T09:13:40.284Z,99.90
2019-02-11T09:16:09.544Z,99.90
2019-02-11T09:18:38.810Z,99.90
2019-02-11T09:21:08.000Z,99.90
2019-02-11T09:23:37.189Z,99.90
2019-02-11T09:26:06.389Z,99.90
2019-02-11T09:28:35.628Z,99.90
2019-02-11T09:31:04.886Z,99.90
2019-02-11T09:33:34.139Z,99.90
2019-02-11T09:36:03.501Z,99.90
2019-02-11T09:38:32.897Z,99.90
2019-02-11T09:41:02.092Z,99.90
2019-02-11T09:43:31.501Z,99.90
2019-02-11T09:46:19.761Z,99.90
2019-02-11T09:48:48.945Z,99.90
2019-02-11T09:51:39.613Z,99.90
2019-02-11T09:54:08.813Z,99.90
2019-02-11T09:56:38.093Z,99.90
2019-02-11T09:59:07.301Z,99.90
2019-02-11T10:01:36.653Z,99.90
2019-02-11T10:04:05.917Z,99.90
2019-02-11T10:06:35.091Z,99.90
2019-02-11T10:09:05.196Z,99.90
2019-02-11T10:11:34.433Z,99.90
2019-02-11T10:14:03.638Z,99.90
2019-02-11T10:16:33.070Z,99.90
2019-02-11T10:19:02.339Z,99.90
2019-02-11T10:21:31.535Z,99.90
2019-02-11T10:24:00.761Z,99.90
2019-02-11T10:26:30.041Z,99.90
2019-02-11T10:28:59.213Z,99.90
2019-02-11T10:31:28.412Z,99.90
2019-02-11T10:33:57.611Z,99.90
2019-02-11T10:36:45.871Z,99.90
2019-02-11T10:39:15.053Z,99.90
2019-02-11T10:41:44.338Z,99.90
2019-02-11T10:44:13.579Z,99.90
2019-02-11T10:46:42.819Z,99.90
2019-02-11T10:49:12.020Z,99.90
2019-02-11T10:51:41.275Z,99.90
2019-02-11T10:54:10.536Z,99.90
2019-02-11T10:56:39.737Z,99.90
2019-02-11T10:59:08.993Z,99.90
2019-02-11T11:01:57.321Z,99.90
2019-02-11T11:04:26.496Z,99.90
2019-02-11T11:06:55.716Z,99.90
2019-02-11T11:09:24.961Z,99.90
2019-02-11T11:11:54.139Z,99.90
2019-02-11T11:14:23.388Z,99.90
2019-02-11T11:16:52.647Z,99.90
2019-02-11T11:19:40.958Z,99.90
2019-02-11T11:22:10.154Z,99.90
2019-02-11T11:24:39.488Z,99.90
2019-02-11T11:27:08.736Z,99.90
2019-02-11T11:29:37.920Z,99.90
2019-02-11T11:32:07.193Z,99.90
2019-02-11T11:34:36.465Z,99.90
2019-02-11T11:37:05.720Z,99.90
2019-02-11T11:39:34.904Z,99.90
2019-02-11T11:42:04.083Z,99.90
2019-02-11T11:44:34.015Z,99.90
2019-02-11T11:47:03.498Z,99.90
2019-02-11T11:49:32.704Z,99.90
2019-02-11T11:52:01.868Z,99.90
2019-02-11T11:54:31.195Z,99.90
2019-02-11T11:57:00.456Z,99.90
2019-02-11T11:59:29.697Z,99.90
2019-02-11T12:01:58.907Z,99.90
2019-02-11T12:04:47.171Z,99.90
2019-02-11T12:07:16.551Z,99.90
2019-02-11T12:09:45.820Z,99.90
2019-02-11T12:12:14.997Z,99.90
2019-02-11T12:14:44.325Z,99.90
2019-02-11T12:17:13.663Z,99.90
2019-02-11T12:19:42.919Z,99.90
2019-02-11T12:22:13.151Z,99.90
2019-02-11T12:24:42.761Z,99.90
2019-02-11T12:27:12.093Z,99.90
2019-02-11T12:29:41.255Z,99.90
2019-02-11T12:32:10.444Z,99.90
2019-02-11T12:34:39.648Z,99.90
2019-02-11T12:37:09.884Z,99.90
2019-02-11T12:39:39.305Z,99.90
2019-02-11T12:42:08.578Z,99.90
2019-02-11T12:44:37.915Z,99.90
2019-02-11T12:47:13.974Z,99.90
2019-02-11T12:49:38.192Z,99.90
2019-02-11T12:52:07.554Z,99.90
2019-02-11T12:54:36.734Z,99.90
2019-02-11T12:57:05.983Z,99.90
2019-02-11T12:59:35.249Z,99.90
2019-02-11T13:02:04.521Z,99.90
2019-02-11T13:04:33.792Z,99.90
2019-02-11T13:07:03.029Z,99.90
2019-02-11T13:09:32.300Z,99.90
2019-02-11T13:12:01.535Z,99.90
2019-02-11T13:14:30.865Z,99.90
2019-02-11T13:17:15.042Z,99.90
2019-02-11T13:19:33.232Z,99.90
2019-02-11T13:22:02.514Z,99.90
2019-02-11T13:24:31.711Z,99.90
2019-02-11T13:27:00.891Z,99.90
2019-02-11T13:29:30.135Z,99.90
2019-02-11T13:31:59.377Z,99.90
2019-02-11T13:34:28.708Z,99.90
2019-02-11T13:36:57.909Z,99.90
2019-02-11T13:39:27.261Z,99.90
2019-02-11T13:41:56.512Z,99.90
2019-02-11T13:44:25.720Z,99.90
2019-02-11T13:46:55.046Z,99.90
2019-02-11T13:49:27.419Z,99.90
2019-02-11T13:51:56.604Z,99.90
2019-02-11T13:54:25.965Z,99.90
2019-02-11T13:56:55.499Z,99.90
2019-02-11T13:59:24.869Z,99.90
2019-02-11T14:01:54.176Z,99.90
2019-02-11T14:04:23.628Z,99.90
2019-02-11T14:06:52.968Z,99.90
2019-02-11T14:09:22.187Z,99.90
2019-02-11T14:11:51.376Z,99.90
2019-02-11T14:14:28.143Z,99.90
2019-02-11T14:17:03.531Z,99.90
2019-02-11T14:19:32.796Z,99.90
2019-02-11T14:22:01.987Z,99.90
2019-02-11T14:24:31.246Z,99.90
2019-02-11T14:27:00.518Z,99.90
2019-02-11T14:29:29.795Z,99.90
2019-02-11T14:31:59.149Z,99.90
2019-02-11T14:34:28.615Z,99.90
2019-02-11T14:36:57.951Z,99.90
2019-02-11T14:39:27.197Z,99.90
2019-02-11T14:41:56.710Z,99.90
2019-02-11T14:44:26.041Z,99.90
2019-02-11T14:46:55.370Z,99.90
2019-02-11T14:49:24.763Z,99.90
2019-02-11T14:52:13.108Z,99.90
2019-02-11T14:54:42.382Z,99.90
2019-02-11T14:57:12.636Z,99.90
2019-02-11T14:59:41.894Z,99.90
2019-02-11T15:02:11.103Z,99.90
2019-02-11T15:04:40.280Z,99.90
2019-02-11T15:07:09.981Z,99.90
2019-02-11T15:09:39.178Z,99.90
2019-02-11T15:12:08.419Z,99.90
2019-02-11T15:14:37.609Z,99.90
2019-02-11T15:17:06.892Z,99.90
2019-02-11T15:19:36.192Z,99.90
2019-02-11T15:22:05.386Z,99.90
2019-02-11T15:24:34.628Z,99.90
2019-02-11T15:27:04.018Z,99.90
2019-02-11T15:29:33.319Z,99.90
2019-02-11T15:32:02.661Z,99.90
2019-02-11T15:34:31.878Z,99.90
2019-02-11T15:37:01.091Z,99.90
2019-02-11T15:39:30.317Z,99.90
2019-02-11T15:41:59.607Z,99.90
2019-02-11T15:44:28.893Z,99.90
2019-02-11T15:46:58.167Z,99.90
2019-02-11T15:49:27.360Z,99.90
2019-02-11T15:51:56.538Z,99.90
2019-02-11T15:54:25.783Z,99.90
2019-02-11T15:56:55.154Z,99.90
2019-02-11T15:59:24.355Z,99.90
2019-02-11T16:01:53.677Z,99.90
2019-02-11T16:04:23.002Z,99.90
2019-02-11T16:06:52.241Z,99.90
2019-02-11T16:09:21.514Z,99.90
2019-02-11T16:11:51.200Z,99.90
2019-02-11T16:14:20.464Z,99.90
2019-02-11T16:16:49.781Z,99.90
2019-02-11T16:19:19.095Z,99.90
2019-02-11T16:21:48.532Z,99.90
2019-02-11T16:24:17.865Z,99.90
2019-02-11T16:26:47.274Z,99.90
2019-02-11T16:29:16.633Z,99.90
2019-02-11T16:31:46.058Z,99.90
2019-02-11T16:34:15.478Z,99.90
2019-02-11T16:36:44.878Z,99.90
2019-02-11T16:39:14.138Z,99.90
2019-02-11T16:41:43.912Z,99.90
2019-02-11T16:44:13.302Z,99.90
2019-02-11T16:46:42.696Z,99.90
2019-02-11T16:49:12.120Z,99.90
2019-02-11T16:51:41.490Z,99.90
2019-02-11T16:54:10.965Z,99.90
2019-02-11T16:56:40.382Z,99.90
2019-02-11T16:59:09.794Z,99.90
2019-02-11T17:01:39.184Z,99.90
2019-02-11T17:04:08.634Z,99.90
2019-02-11T17:06:38.041Z,99.90
2019-02-11T17:09:07.668Z,99.90
2019-02-11T17:11:36.994Z,99.90
2019-02-11T17:14:06.372Z,99.90
2019-02-11T17:16:35.616Z,99.90
2019-02-11T17:19:09.381Z,99.90
2019-02-11T17:21:35.996Z,99.90
2019-02-11T17:24:06.906Z,99.90
2019-02-11T17:26:36.257Z,99.90
2019-02-11T17:29:24.725Z,99.90
2019-02-11T17:31:55.261Z,99.90
2019-02-11T17:34:24.618Z,99.90
2019-02-11T17:36:53.925Z,99.90
2019-02-11T17:39:24.130Z,99.90
2019-02-11T17:41:53.532Z,99.90
2019-02-11T17:44:22.954Z,99.90
2019-02-11T17:46:52.334Z,99.90
2019-02-11T17:49:21.747Z,99.90
2019-02-11T17:51:51.397Z,99.90
2019-02-11T17:54:21.200Z,99.90
2019-02-11T17:56:54.957Z,99.90
2019-02-11T17:59:25.867Z,99.90
2019-02-11T18:01:55.205Z,99.90
2019-02-11T18:04:24.978Z,99.90
2019-02-11T18:06:54.225Z,99.90
2019-02-11T18:09:23.663Z,99.90
2019-02-11T18:11:53.210Z,99.90
2019-02-11T18:14:22.700Z,99.90
2019-02-11T18:16:53.283Z,99.90
2019-02-11T18:19:26.272Z,99.90
2019-02-11T18:21:55.980Z,99.90
2019-02-11T18:24:25.421Z,99.90
2019-02-11T18:26:54.915Z,99.90
2019-02-11T18:29:24.349Z,99.90
2019-02-11T18:31:54.127Z,99.90
2019-02-11T18:34:23.511Z,99.90
2019-02-11T18:36:52.957Z,99.90
2019-02-11T18:39:22.729Z,99.90
2019-02-11T18:41:52.131Z,99.90
2019-02-11T18:44:23.542Z,99.90
2019-02-11T18:46:53.021Z,99.90
2019-02-11T18:49:22.425Z,99.90
2019-02-11T18:51:52.150Z,99.90
2019-02-11T18:54:21.677Z,99.90
2019-02-11T18:56:51.017Z,99.90
2019-02-11T18:59:24.707Z,99.90
2019-02-11T19:01:51.578Z,99.90
2019-02-11T19:04:21.361Z,99.90
2019-02-11T19:06:50.798Z,99.90
2019-02-11T19:09:20.836Z,99.90
2019-02-11T19:11:51.753Z,99.90
2019-02-11T19:14:21.564Z,99.90
2019-02-11T19:16:52.093Z,99.90
2019-02-11T19:19:21.824Z,99.90
2019-02-11T19:21:51.810Z,99.90
2019-02-11T19:24:21.404Z,99.90
2019-02-11T19:26:51.476Z,99.90
2019-02-11T19:29:21.329Z,99.90
2019-02-11T19:31:53.033Z,99.90
2019-02-11T19:34:23.103Z,99.90
2019-02-11T19:36:54.824Z,99.90
2019-02-11T19:39:24.641Z,99.90
2019-02-11T19:41:54.559Z,99.90
2019-02-11T19:44:24.186Z,99.90
2019-02-11T19:47:12.820Z,99.90
2019-02-11T19:49:51.751Z,99.90
2019-02-11T19:52:16.050Z,99.90
2019-02-11T19:54:46.271Z,99.90
2019-02-11T19:57:16.925Z,99.90
2019-02-11T19:59:46.725Z,99.90
2019-02-11T20:02:36.771Z,99.90
2019-02-11T20:05:10.215Z,99.90
2019-02-11T20:07:43.316Z,99.90
2019-02-11T20:10:15.786Z,99.90
2019-02-11T20:12:46.456Z,99.90
2019-02-11T20:15:20.461Z,99.90
2019-02-11T20:17:51.161Z,99.90
2019-02-11T20:20:22.632Z,99.90
2019-02-11T20:22:52.114Z,99.90
2019-02-11T20:25:22.483Z,99.90
2019-02-11T20:27:52.707Z,99.90
2019-02-11T20:30:33.995Z,99.90
2019-02-11T20:33:15.373Z,99.90
2019-02-11T20:35:45.487Z,99.90
2019-02-11T20:38:34.263Z,99.90
2019-02-11T20:41:04.389Z,99.90
2019-02-11T20:43:34.551Z,99.90
2019-02-11T20:46:04.545Z,99.90
2019-02-11T20:48:34.513Z,99.90
2019-02-11T20:51:04.457Z,99.90
2019-02-11T20:53:33.992Z,99.90
2019-02-11T20:56:03.654Z,99.90
2019-02-11T20:58:33.316Z,99.90
2019-02-11T21:01:05.396Z,99.90
2019-02-11T21:03:36.329Z,99.90
2019-02-11T21:06:07.295Z,99.90
2019-02-11T21:08:36.672Z,99.90
2019-02-11T21:11:06.250Z,99.90
2019-02-11T21:13:35.672Z,99.90
2019-02-11T21:16:06.638Z,99.90
2019-02-11T21:18:37.849Z,99.90
2019-02-11T21:21:09.915Z,99.90
2019-02-11T21:23:39.277Z,99.90
2019-02-11T21:26:27.799Z,99.90
2019-02-11T21:29:09.292Z,99.90
2019-02-11T21:31:39.045Z,99.90
2019-02-11T21:34:08.493Z,99.90
2019-02-11T21:36:37.899Z,99.90
2019-02-11T21:39:08.715Z,99.90
2019-02-11T21:41:38.119Z,99.90
2019-02-11T21:44:07.539Z,99.90
2019-02-11T21:46:36.981Z,99.90
2019-02-11T21:49:06.339Z,99.90
2019-02-11T21:51:35.850Z,99.90
2019-02-11T21:54:05.203Z,99.90
2019-02-11T21:56:34.501Z,99.90
2019-02-11T21:59:03.811Z,99.90
2019-02-11T22:01:33.200Z,99.90
2019-02-11T22:04:02.515Z,99.90
2019-02-11T22:06:31.938Z,99.90
2019-02-11T22:09:01.306Z,99.90
2019-02-11T22:11:49.734Z,99.90
2019-02-11T22:14:19.567Z,99.90
2019-02-11T22:16:48.803Z,99.90
2019-02-11T22:19:18.076Z,99.90
2019-02-11T22:21:47.442Z,99.90
2019-02-11T22:24:16.631Z,99.90
2019-02-11T22:26:45.831Z,99.90
2019-02-11T22:29:17.907Z,99.90
2019-02-11T22:31:47.168Z,99.90
2019-02-11T22:34:16.342Z,99.90
2019-02-11T22:36:45.546Z,99.90
2019-02-11T22:39:14.723Z,99.90
2019-02-11T22:41:43.981Z,99.90
2019-02-11T22:44:13.273Z,99.90
2019-02-11T22:46:42.561Z,99.90
2019-02-11T22:49:11.756Z,99.90
2019-02-11T22:51:40.934Z,99.90
2019-02-11T22:54:10.132Z,99.90
2019-02-11T22:56:39.384Z,99.90
2019-02-11T22:59:08.580Z,99.90
2019-02-11T23:01:37.752Z,99.90
2019-02-11T23:04:06.978Z,99.90
2019-02-11T23:06:44.648Z,99.90
2019-02-11T23:09:20.058Z,99.90
2019-02-11T23:11:49.330Z,99.90
2019-02-11T23:14:18.633Z,99.90
2019-02-11T23:16:56.060Z,99.90
2019-02-11T23:19:25.265Z,99.90
2019-02-11T23:21:54.533Z,99.90
2019-02-11T23:24:23.708Z,99.90
2019-02-11T23:26:58.105Z,99.90
2019-02-11T23:29:27.289Z,99.90
2019-02-11T23:31:56.566Z,99.90
2019-02-11T23:34:25.892Z,99.90
2019-02-11T23:36:55.101Z,99.90
2019-02-11T23:39:24.276Z,99.90
2019-02-11T23:41:53.549Z,99.90
2019-02-11T23:44:22.763Z,99.90
2019-02-11T23:46:52.025Z,99.90
2019-02-11T23:49:21.280Z,99.90
2019-02-11T23:51:50.537Z,99.90
2019-02-11T23:54:19.745Z,99.90
2019-02-11T23:56:48.997Z,99.90
2019-02-11T23:59:18.177Z,99.90
